KSANMMCL

Guest
Details From KSAN - San Diego Intl
To MMCL - CULIACAN INTL
Flight Number -
Tags generated
Created
Modified
Stats Distance 703 nm / 1,301 km
Max Altitude 35,000 ft / 10,668 m
Waypoints 8
Social Downloads 0
Likes 0
Share VATSIM

Download

Looking for another format? Having issues loading an existing format? Contact us
Advertisement - Login to hide

Notes

Basic altitude profile: - Ascent Rate: 2500ft/min - Ascent Speed: 250kts - Cruise Altitude: 35000ft - Cruise Speed: 420kts - Descent Rate: 1500ft/min - Descent Speed: 250kts Options: - Use NATs: yes - Use PACOTS: yes - Use low airways: yes - Use high airways: yes

Route

KSAN TIJ UT4 LMM V3 CUL MMCL

ID Type Via Altitude Latitude Longitude Leg Dist Tot Dist Heading (true) Name
O KSAN APT - 0 ft / 0 m 32.73356˚ -117.18966˚ - 0 nm - San Diego Intl
TIJ VOR - 5,900 ft / 1,798 m 32.54044˚ -116.95269˚ 16 nm 16 nm 134° / 134° TIJUANA VOR-DME
SANFE FIX UT4 (AWY-HI) 35,000 ft / 10,668 m 30.89841˚ -114.91420˚ 143 nm 160 nm 133° / 134° -
ANTEL FIX UT4 (AWY-HI) 35,000 ft / 10,668 m 29.79920˚ -113.60905˚ 94 nm 254 nm 134° / 135° -
LUCAS FIX UT4 (AWY-HI) 35,000 ft / 10,668 m 27.77662˚ -111.31636˚ 171 nm 425 nm 135° / 136° -
LMM VOR UT4 (AWY-HI) 21,000 ft / 6,401 m 25.68261˚ -109.07158˚ 174 nm 599 nm 136° / 137° MOCHIS VOR-DME
CUL VOR V3 (AWY-LO) 5,000 ft / 1,524 m 24.76443˚ -107.47728˚ 102 nm 702 nm 122° / 123° CULIACAN VOR-DME
O MMCL APT - 0 ft / 0 m 24.76566˚ -107.47611˚ 0 nm 702 nm 41° / 41° CULIACAN INTL

Altitude Profile

Advertisement - Login to hide

Weather


0- 5 10 15 20 25 30 35+ Temperature / ° C

Clouds and Precipitation
Forecast for 2017-12-11 18:00 UTC. Updated 2 hours ago

Ground ~20,000 ft ~40,000 ft Winds

KSAN

Details ICAO KSAN (SAN)
Name San Diego Intl
Region United States
Timezone America/Los_Angeles (UTC-8.0)
Stats Elevation 17 ft / 5 m (AMSL)
Location 32.733556° -117.189658°
Runways 1
Magnetic Variation 11.526° E

METAR

KSAN 111651Z 35003KT 10SM FEW160 FEW200 SCT250 19/M04 A3021 RMK AO2 SLP230 T01941044

Decode

TAF

TAF AMD KSAN 111452Z 1115/1218 VRB03KT P6SM BKN250 FM112000 31008KT P6SM SCT250 FM120100 VRB03KT P6SM FEW250

Decode

Departure Runways

ID Width Length Bearing (true) Bearing (mag) Surface Threshold Offset Overrun Length
09 200 ft / 61 m 9,387 ft / 2,861 m 106.07° 94.54° Asphalt 699 ft / 213 m 269 ft / 82 m
27 200 ft / 61 m 9,387 ft / 2,861 m 286.08° 274.55° Asphalt 1,811 ft / 552 m 0 ft / 0 m

MMCL

Details ICAO MMCL (CUL)
Name CULIACAN INTL
Region Mexico
Timezone America/Mazatlan (UTC-7.0)
Stats Elevation 108 ft / 33 m (AMSL)
Location 24.765658° -107.476106°
Runways 1
Magnetic Variation 7.842° E

METAR

MMCL 111645Z 00000KT 10SM SCT090 OVC230 24/06 A3010 RMK 8/077

Decode

TAF

Not found

Destination Runways

ID Width Length Bearing (true) Bearing (mag) Surface Threshold Offset Overrun Length
02 148 ft / 45 m 7,568 ft / 2,307 m 32.85° 25.01° Asphalt 0 ft / 0 m 0 ft / 0 m
20 148 ft / 45 m 7,568 ft / 2,307 m 212.86° 205.02° Asphalt 886 ft / 270 m 0 ft / 0 m